Terminal Aerodrome Forecast
Issued by NWS

Home | Current Version | Previous Version | Text Only | Print | Product List | Glossary On
Versions: 1 2 3 4 5 6 7 8 9 10 11 12 13 14 15 16 17 18 19 20 21 22
357
FTUS43 KILX 272125 AAA
TAFBMI
TAF AMD
KBMI 272125Z 2721/2818 19014KT P6SM VCSH SCT025 OVC035
      TEMPO 2721/2723 BKN025
     FM272300 17014G22KT P6SM VCTS SCT025CB OVC050
     FM280200 18010KT P6SM -RA VCTS OVC025CB
     FM280800 18010KT P6SM VCSH SCT025 OVC050
     FM281500 20014G20KT P6SM VCTS SCT025CB BKN060=

USA.gov is the U.S. government's official web portal to all federal, state and local government web resources and services.